sensor_id;sensor_type;location;lat;lon;timestamp;P1;durP1;ratioP1;P2;durP2;ratioP2
72761;SDS011;60886;55.034;73.150;2024-02-26T00:01:06;16.27;;;5.28;;
72761;SDS011;60886;55.034;73.150;2024-02-26T00:04:08;19.10;;;5.10;;
72761;SDS011;60886;55.034;73.150;2024-02-26T00:07:09;12.38;;;4.70;;
72761;SDS011;60886;55.034;73.150;2024-02-26T00:10:11;17.50;;;4.23;;
72761;SDS011;60886;55.034;73.150;2024-02-26T00:13:13;12.00;;;4.50;;
72761;SDS011;60886;55.034;73.150;2024-02-26T00:16:15;16.10;;;5.10;;
72761;SDS011;60886;55.034;73.150;2024-02-26T00:19:16;11.15;;;3.88;;
72761;SDS011;60886;55.034;73.150;2024-02-26T00:22:18;12.07;;;3.65;;
72761;SDS011;60886;55.034;73.150;2024-02-26T00:25:19;10.27;;;3.77;;
72761;SDS011;60886;55.034;73.150;2024-02-26T00:28:27;12.80;;;4.33;;
72761;SDS011;60886;55.034;73.150;2024-02-26T00:31:30;13.70;;;4.60;;
72761;SDS011;60886;55.034;73.150;2024-02-26T00:34:31;11.35;;;4.03;;
72761;SDS011;60886;55.034;73.150;2024-02-26T00:37:33;11.48;;;4.32;;
72761;SDS011;60886;55.034;73.150;2024-02-26T00:40:34;14.25;;;3.97;;
72761;SDS011;60886;55.034;73.150;2024-02-26T00:43:36;11.87;;;3.73;;
72761;SDS011;60886;55.034;73.150;2024-02-26T00:46:40;9.82;;;4.30;;
72761;SDS011;60886;55.034;73.150;2024-02-26T00:49:42;13.87;;;4.20;;
72761;SDS011;60886;55.034;73.150;2024-02-26T00:52:43;12.07;;;3.88;;
72761;SDS011;60886;55.034;73.150;2024-02-26T00:55:45;10.60;;;3.60;;
72761;SDS011;60886;55.034;73.150;2024-02-26T00:58:46;14.43;;;4.80;;
72761;SDS011;60886;55.034;73.150;2024-02-26T01:01:48;11.73;;;4.67;;
72761;SDS011;60886;55.034;73.150;2024-02-26T01:04:49;14.95;;;4.97;;
72761;SDS011;60886;55.034;73.150;2024-02-26T01:07:51;15.57;;;4.68;;
72761;SDS011;60886;55.034;73.150;2024-02-26T01:10:53;18.17;;;5.23;;
72761;SDS011;60886;55.034;73.150;2024-02-26T01:13:54;15.48;;;4.63;;
72761;SDS011;60886;55.034;73.150;2024-02-26T01:16:57;13.63;;;4.82;;
72761;SDS011;60886;55.034;73.150;2024-02-26T01:19:59;12.23;;;4.00;;
72761;SDS011;60886;55.034;73.150;2024-02-26T01:23:00;11.70;;;3.80;;
72761;SDS011;60886;55.034;73.150;2024-02-26T01:26:02;18.73;;;6.20;;
72761;SDS011;60886;55.034;73.150;2024-02-26T01:29:05;12.77;;;3.47;;
72761;SDS011;60886;55.034;73.150;2024-02-26T01:32:07;14.68;;;4.75;;
72761;SDS011;60886;55.034;73.150;2024-02-26T01:35:09;21.77;;;5.20;;
72761;SDS011;60886;55.034;73.150;2024-02-26T01:38:13;17.77;;;4.83;;
72761;SDS011;60886;55.034;73.150;2024-02-26T01:41:15;12.63;;;3.97;;
72761;SDS011;60886;55.034;73.150;2024-02-26T01:44:17;11.83;;;3.97;;
72761;SDS011;60886;55.034;73.150;2024-02-26T01:47:19;16.02;;;4.45;;
72761;SDS011;60886;55.034;73.150;2024-02-26T01:50:21;14.17;;;4.67;;
72761;SDS011;60886;55.034;73.150;2024-02-26T01:53:27;12.73;;;4.07;;
72761;SDS011;60886;55.034;73.150;2024-02-26T01:56:29;12.43;;;4.95;;
72761;SDS011;60886;55.034;73.150;2024-02-26T01:59:35;14.50;;;4.97;;
72761;SDS011;60886;55.034;73.150;2024-02-26T02:02:37;10.95;;;3.72;;
72761;SDS011;60886;55.034;73.150;2024-02-26T02:05:39;14.57;;;5.07;;
72761;SDS011;60886;55.034;73.150;2024-02-26T02:08:43;13.97;;;4.10;;
72761;SDS011;60886;55.034;73.150;2024-02-26T02:11:44;13.05;;;4.28;;
72761;SDS011;60886;55.034;73.150;2024-02-26T02:14:47;14.75;;;5.07;;
72761;SDS011;60886;55.034;73.150;2024-02-26T02:17:52;17.37;;;5.47;;
72761;SDS011;60886;55.034;73.150;2024-02-26T02:20:54;17.95;;;6.10;;
72761;SDS011;60886;55.034;73.150;2024-02-26T02:23:57;14.50;;;5.60;;
72761;SDS011;60886;55.034;73.150;2024-02-26T02:27:02;17.83;;;6.97;;
72761;SDS011;60886;55.034;73.150;2024-02-26T02:30:05;22.00;;;6.25;;
72761;SDS011;60886;55.034;73.150;2024-02-26T02:33:09;22.58;;;6.90;;
72761;SDS011;60886;55.034;73.150;2024-02-26T02:36:12;19.73;;;7.55;;
72761;SDS011;60886;55.034;73.150;2024-02-26T02:39:15;21.50;;;7.97;;
72761;SDS011;60886;55.034;73.150;2024-02-26T02:42:17;15.82;;;5.72;;
72761;SDS011;60886;55.034;73.150;2024-02-26T02:45:18;14.48;;;5.55;;
72761;SDS011;60886;55.034;73.150;2024-02-26T02:48:27;15.21;;;4.36;;
72761;SDS011;60886;55.034;73.150;2024-02-26T02:51:29;16.90;;;5.28;;
72761;SDS011;60886;55.034;73.150;2024-02-26T02:54:31;15.68;;;5.68;;
72761;SDS011;60886;55.034;73.150;2024-02-26T02:57:32;14.33;;;5.20;;
72761;SDS011;60886;55.034;73.150;2024-02-26T03:00:34;14.27;;;4.80;;
72761;SDS011;60886;55.034;73.150;2024-02-26T03:03:36;16.20;;;4.32;;
72761;SDS011;60886;55.034;73.150;2024-02-26T03:06:38;16.05;;;5.53;;
72761;SDS011;60886;55.034;73.150;2024-02-26T03:09:40;23.77;;;9.20;;
72761;SDS011;60886;55.034;73.150;2024-02-26T03:12:42;17.27;;;5.97;;
72761;SDS011;60886;55.034;73.150;2024-02-26T03:15:43;14.65;;;4.57;;
72761;SDS011;60886;55.034;73.150;2024-02-26T03:18:45;22.37;;;3.60;;
72761;SDS011;60886;55.034;73.150;2024-02-26T03:21:46;15.70;;;4.85;;
72761;SDS011;60886;55.034;73.150;2024-02-26T03:24:48;13.60;;;5.10;;
72761;SDS011;60886;55.034;73.150;2024-02-26T03:27:50;17.92;;;6.03;;
72761;SDS011;60886;55.034;73.150;2024-02-26T03:30:52;36.80;;;10.47;;
72761;SDS011;60886;55.034;73.150;2024-02-26T03:33:53;68.00;;;20.17;;
72761;SDS011;60886;55.034;73.150;2024-02-26T03:36:58;97.80;;;25.43;;
72761;SDS011;60886;55.034;73.150;2024-02-26T03:39:59;77.18;;;20.17;;
72761;SDS011;60886;55.034;73.150;2024-02-26T03:43:05;56.80;;;15.93;;
72761;SDS011;60886;55.034;73.150;2024-02-26T03:46:08;44.13;;;12.53;;
72761;SDS011;60886;55.034;73.150;2024-02-26T03:49:12;62.67;;;17.60;;
72761;SDS011;60886;55.034;73.150;2024-02-26T03:52:14;40.30;;;11.25;;
72761;SDS011;60886;55.034;73.150;2024-02-26T03:55:16;27.75;;;8.68;;
72761;SDS011;60886;55.034;73.150;2024-02-26T03:58:27;25.96;;;7.28;;
72761;SDS011;60886;55.034;73.150;2024-02-26T04:01:29;23.85;;;7.30;;
72761;SDS011;60886;55.034;73.150;2024-02-26T04:04:33;27.60;;;6.67;;
72761;SDS011;60886;55.034;73.150;2024-02-26T04:07:35;19.52;;;6.72;;
72761;SDS011;60886;55.034;73.150;2024-02-26T04:10:37;24.38;;;7.00;;
72761;SDS011;60886;55.034;73.150;2024-02-26T04:13:40;14.53;;;4.73;;
72761;SDS011;60886;55.034;73.150;2024-02-26T04:16:41;13.70;;;4.55;;
72761;SDS011;60886;55.034;73.150;2024-02-26T04:19:43;16.47;;;5.57;;
72761;SDS011;60886;55.034;73.150;2024-02-26T04:22:44;13.10;;;5.00;;
72761;SDS011;60886;55.034;73.150;2024-02-26T04:25:46;14.77;;;5.40;;
72761;SDS011;60886;55.034;73.150;2024-02-26T04:28:47;16.27;;;4.87;;
72761;SDS011;60886;55.034;73.150;2024-02-26T04:31:49;11.98;;;4.22;;
72761;SDS011;60886;55.034;73.150;2024-02-26T04:34:51;15.83;;;5.70;;
72761;SDS011;60886;55.034;73.150;2024-02-26T04:37:52;23.70;;;5.65;;
72761;SDS011;60886;55.034;73.150;2024-02-26T04:40:54;14.90;;;5.53;;
72761;SDS011;60886;55.034;73.150;2024-02-26T04:43:55;13.25;;;4.78;;
72761;SDS011;60886;55.034;73.150;2024-02-26T04:46:57;13.93;;;5.25;;
72761;SDS011;60886;55.034;73.150;2024-02-26T04:49:58;17.70;;;5.60;;
72761;SDS011;60886;55.034;73.150;2024-02-26T04:53:00;12.80;;;4.93;;
72761;SDS011;60886;55.034;73.150;2024-02-26T04:56:02;15.43;;;4.85;;
72761;SDS011;60886;55.034;73.150;2024-02-26T04:59:04;13.90;;;4.70;;
72761;SDS011;60886;55.034;73.150;2024-02-26T05:02:05;16.80;;;5.55;;
72761;SDS011;60886;55.034;73.150;2024-02-26T05:05:07;16.57;;;5.63;;
72761;SDS011;60886;55.034;73.150;2024-02-26T05:08:09;14.10;;;5.30;;
72761;SDS011;60886;55.034;73.150;2024-02-26T05:11:11;18.10;;;6.00;;
72761;SDS011;60886;55.034;73.150;2024-02-26T05:14:13;17.23;;;6.23;;
72761;SDS011;60886;55.034;73.150;2024-02-26T05:17:14;16.38;;;5.13;;
72761;SDS011;60886;55.034;73.150;2024-02-26T05:20:16;14.17;;;4.87;;
72761;SDS011;60886;55.034;73.150;2024-02-26T05:23:27;13.24;;;5.48;;
72761;SDS011;60886;55.034;73.150;2024-02-26T05:26:29;14.70;;;5.57;;
72761;SDS011;60886;55.034;73.150;2024-02-26T05:29:30;16.13;;;5.77;;
72761;SDS011;60886;55.034;73.150;2024-02-26T05:32:32;19.83;;;6.45;;
72761;SDS011;60886;55.034;73.150;2024-02-26T05:35:33;18.87;;;5.87;;
72761;SDS011;60886;55.034;73.150;2024-02-26T05:38:35;18.37;;;6.00;;
72761;SDS011;60886;55.034;73.150;2024-02-26T05:41:37;15.38;;;5.47;;
72761;SDS011;60886;55.034;73.150;2024-02-26T05:44:39;16.67;;;5.53;;
72761;SDS011;60886;55.034;73.150;2024-02-26T05:47:40;18.52;;;6.03;;
72761;SDS011;60886;55.034;73.150;2024-02-26T05:50:45;15.23;;;5.70;;
72761;SDS011;60886;55.034;73.150;2024-02-26T05:53:48;19.65;;;5.53;;
72761;SDS011;60886;55.034;73.150;2024-02-26T05:56:55;16.42;;;5.55;;
72761;SDS011;60886;55.034;73.150;2024-02-26T05:59:56;15.20;;;5.37;;
72761;SDS011;60886;55.034;73.150;2024-02-26T06:02:58;15.25;;;5.40;;
72761;SDS011;60886;55.034;73.150;2024-02-26T06:05:59;14.77;;;5.10;;
72761;SDS011;60886;55.034;73.150;2024-02-26T06:09:01;14.07;;;5.53;;
72761;SDS011;60886;55.034;73.150;2024-02-26T06:12:02;14.05;;;4.57;;
72761;SDS011;60886;55.034;73.150;2024-02-26T06:15:04;12.38;;;5.22;;
72761;SDS011;60886;55.034;73.150;2024-02-26T06:18:06;12.70;;;4.97;;
72761;SDS011;60886;55.034;73.150;2024-02-26T06:21:11;15.00;;;5.10;;
72761;SDS011;60886;55.034;73.150;2024-02-26T06:24:13;14.23;;;5.00;;
72761;SDS011;60886;55.034;73.150;2024-02-26T06:27:14;17.55;;;5.57;;
72761;SDS011;60886;55.034;73.150;2024-02-26T06:30:16;15.05;;;5.07;;
72761;SDS011;60886;55.034;73.150;2024-02-26T06:33:27;16.41;;;6.08;;
72761;SDS011;60886;55.034;73.150;2024-02-26T06:36:29;14.17;;;5.77;;
72761;SDS011;60886;55.034;73.150;2024-02-26T06:39:32;19.02;;;5.63;;
72761;SDS011;60886;55.034;73.150;2024-02-26T06:42:33;13.23;;;5.57;;
72761;SDS011;60886;55.034;73.150;2024-02-26T06:45:35;18.37;;;6.43;;
72761;SDS011;60886;55.034;73.150;2024-02-26T06:48:37;16.47;;;5.77;;
72761;SDS011;60886;55.034;73.150;2024-02-26T06:51:38;15.07;;;5.35;;
72761;SDS011;60886;55.034;73.150;2024-02-26T06:54:40;17.67;;;5.83;;
72761;SDS011;60886;55.034;73.150;2024-02-26T06:57:42;16.60;;;5.80;;
72761;SDS011;60886;55.034;73.150;2024-02-26T07:00:44;16.30;;;5.90;;
72761;SDS011;60886;55.034;73.150;2024-02-26T07:03:47;13.73;;;5.05;;
72761;SDS011;60886;55.034;73.150;2024-02-26T07:06:48;17.83;;;6.07;;
72761;SDS011;60886;55.034;73.150;2024-02-26T07:09:50;17.00;;;6.17;;
72761;SDS011;60886;55.034;73.150;2024-02-26T07:12:52;16.63;;;5.85;;
72761;SDS011;60886;55.034;73.150;2024-02-26T07:15:54;14.80;;;5.78;;
72761;SDS011;60886;55.034;73.150;2024-02-26T07:18:55;13.07;;;5.32;;
72761;SDS011;60886;55.034;73.150;2024-02-26T07:21:57;13.33;;;5.00;;
72761;SDS011;60886;55.034;73.150;2024-02-26T07:24:59;17.13;;;5.07;;
72761;SDS011;60886;55.034;73.150;2024-02-26T07:28:00;13.00;;;4.93;;
72761;SDS011;60886;55.034;73.150;2024-02-26T07:31:02;16.05;;;5.28;;
72761;SDS011;60886;55.034;73.150;2024-02-26T07:34:04;13.85;;;4.50;;
72761;SDS011;60886;55.034;73.150;2024-02-26T07:37:05;12.83;;;4.73;;
72761;SDS011;60886;55.034;73.150;2024-02-26T07:40:08;15.70;;;5.03;;
72761;SDS011;60886;55.034;73.150;2024-02-26T07:43:11;14.30;;;5.10;;
72761;SDS011;60886;55.034;73.150;2024-02-26T07:46:13;13.90;;;5.70;;
72761;SDS011;60886;55.034;73.150;2024-02-26T07:49:14;11.13;;;4.83;;
72761;SDS011;60886;55.034;73.150;2024-02-26T07:52:16;16.30;;;5.13;;
72761;SDS011;60886;55.034;73.150;2024-02-26T07:55:17;14.20;;;5.10;;
72761;SDS011;60886;55.034;73.150;2024-02-26T07:58:27;13.21;;;5.37;;
72761;SDS011;60886;55.034;73.150;2024-02-26T08:01:29;14.38;;;5.43;;
72761;SDS011;60886;55.034;73.150;2024-02-26T08:04:30;14.97;;;5.33;;
72761;SDS011;60886;55.034;73.150;2024-02-26T08:07:32;10.68;;;4.50;;
72761;SDS011;60886;55.034;73.150;2024-02-26T08:10:33;13.00;;;4.80;;
72761;SDS011;60886;55.034;73.150;2024-02-26T08:13:35;16.93;;;5.27;;
72761;SDS011;60886;55.034;73.150;2024-02-26T08:16:37;12.90;;;4.57;;
72761;SDS011;60886;55.034;73.150;2024-02-26T08:19:38;14.33;;;5.10;;
72761;SDS011;60886;55.034;73.150;2024-02-26T08:22:40;13.88;;;5.13;;
72761;SDS011;60886;55.034;73.150;2024-02-26T08:25:42;18.60;;;6.00;;
72761;SDS011;60886;55.034;73.150;2024-02-26T08:28:43;16.38;;;5.55;;
72761;SDS011;60886;55.034;73.150;2024-02-26T08:31:45;15.13;;;5.85;;
72761;SDS011;60886;55.034;73.150;2024-02-26T08:34:47;16.77;;;5.40;;
72761;SDS011;60886;55.034;73.150;2024-02-26T08:37:48;12.93;;;5.07;;
72761;SDS011;60886;55.034;73.150;2024-02-26T08:40:50;15.13;;;5.97;;
72761;SDS011;60886;55.034;73.150;2024-02-26T08:43:51;19.63;;;6.03;;
72761;SDS011;60886;55.034;73.150;2024-02-26T08:46:53;17.10;;;5.90;;
72761;SDS011;60886;55.034;73.150;2024-02-26T08:49:54;15.27;;;5.60;;
72761;SDS011;60886;55.034;73.150;2024-02-26T08:52:56;14.18;;;5.45;;
72761;SDS011;60886;55.034;73.150;2024-02-26T08:55:57;17.57;;;5.63;;
72761;SDS011;60886;55.034;73.150;2024-02-26T08:58:59;14.10;;;5.88;;
72761;SDS011;60886;55.034;73.150;2024-02-26T09:02:05;15.63;;;6.07;;
72761;SDS011;60886;55.034;73.150;2024-02-26T09:05:06;13.93;;;5.30;;
72761;SDS011;60886;55.034;73.150;2024-02-26T09:08:08;21.53;;;6.23;;
72761;SDS011;60886;55.034;73.150;2024-02-26T09:11:10;14.75;;;5.78;;
72761;SDS011;60886;55.034;73.150;2024-02-26T09:14:12;14.40;;;5.33;;
72761;SDS011;60886;55.034;73.150;2024-02-26T09:17:13;14.35;;;5.72;;
72761;SDS011;60886;55.034;73.150;2024-02-26T09:20:15;13.75;;;5.07;;
72761;SDS011;60886;55.034;73.150;2024-02-26T09:23:27;17.62;;;6.00;;
72761;SDS011;60886;55.034;73.150;2024-02-26T09:26:28;13.85;;;5.75;;
72761;SDS011;60886;55.034;73.150;2024-02-26T09:29:30;17.50;;;5.82;;
72761;SDS011;60886;55.034;73.150;2024-02-26T09:32:32;15.27;;;5.57;;
72761;SDS011;60886;55.034;73.150;2024-02-26T09:35:33;17.23;;;6.00;;
72761;SDS011;60886;55.034;73.150;2024-02-26T09:38:35;16.02;;;5.43;;
72761;SDS011;60886;55.034;73.150;2024-02-26T09:41:39;15.45;;;5.72;;
72761;SDS011;60886;55.034;73.150;2024-02-26T09:44:40;17.20;;;5.93;;
72761;SDS011;60886;55.034;73.150;2024-02-26T09:47:45;14.20;;;5.78;;
72761;SDS011;60886;55.034;73.150;2024-02-26T09:50:49;15.02;;;6.30;;
72761;SDS011;60886;55.034;73.150;2024-02-26T09:53:51;17.75;;;7.00;;
72761;SDS011;60886;55.034;73.150;2024-02-26T09:56:53;17.42;;;5.78;;
72761;SDS011;60886;55.034;73.150;2024-02-26T10:00:00;14.50;;;5.28;;
72761;SDS011;60886;55.034;73.150;2024-02-26T10:03:11;15.07;;;5.47;;
72761;SDS011;60886;55.034;73.150;2024-02-26T10:06:17;13.43;;;4.97;;
72761;SDS011;60886;55.034;73.150;2024-02-26T10:09:19;14.27;;;5.23;;
72761;SDS011;60886;55.034;73.150;2024-02-26T10:12:21;19.08;;;7.65;;
72761;SDS011;60886;55.034;73.150;2024-02-26T10:15:23;23.70;;;9.07;;
72761;SDS011;60886;55.034;73.150;2024-02-26T10:18:27;16.10;;;5.93;;
72761;SDS011;60886;55.034;73.150;2024-02-26T10:21:28;16.10;;;5.67;;
72761;SDS011;60886;55.034;73.150;2024-02-26T10:24:30;13.57;;;5.50;;
72761;SDS011;60886;55.034;73.150;2024-02-26T10:27:32;14.63;;;5.35;;
72761;SDS011;60886;55.034;73.150;2024-02-26T10:30:36;13.13;;;5.23;;
72761;SDS011;60886;55.034;73.150;2024-02-26T10:33:39;25.30;;;9.17;;
72761;SDS011;60886;55.034;73.150;2024-02-26T10:36:41;23.88;;;9.18;;
72761;SDS011;60886;55.034;73.150;2024-02-26T10:39:46;25.33;;;9.05;;
72761;SDS011;60886;55.034;73.150;2024-02-26T10:42:48;14.48;;;5.85;;
72761;SDS011;60886;55.034;73.150;2024-02-26T10:45:50;16.45;;;6.50;;
72761;SDS011;60886;55.034;73.150;2024-02-26T10:48:52;15.20;;;6.05;;
72761;SDS011;60886;55.034;73.150;2024-02-26T10:51:55;14.85;;;5.97;;
72761;SDS011;60886;55.034;73.150;2024-02-26T10:55:01;17.63;;;6.13;;
72761;SDS011;60886;55.034;73.150;2024-02-26T10:58:05;18.08;;;6.88;;
72761;SDS011;60886;55.034;73.150;2024-02-26T11:01:09;16.27;;;6.07;;
72761;SDS011;60886;55.034;73.150;2024-02-26T11:04:12;15.63;;;5.63;;
72761;SDS011;60886;55.034;73.150;2024-02-26T11:07:16;17.63;;;5.90;;
72761;SDS011;60886;55.034;73.150;2024-02-26T11:10:38;13.57;;;5.38;;
72761;SDS011;60886;55.034;73.150;2024-02-26T11:13:41;15.17;;;5.90;;
72761;SDS011;60886;55.034;73.150;2024-02-26T11:16:46;16.23;;;5.10;;
72761;SDS011;60886;55.034;73.150;2024-02-26T11:19:50;11.25;;;4.68;;
72761;SDS011;60886;55.034;73.150;2024-02-26T11:22:54;17.17;;;5.70;;
72761;SDS011;60886;55.034;73.150;2024-02-26T11:25:56;14.20;;;5.63;;
72761;SDS011;60886;55.034;73.150;2024-02-26T11:29:00;12.23;;;5.10;;
72761;SDS011;60886;55.034;73.150;2024-02-26T11:32:03;19.73;;;6.80;;
72761;SDS011;60886;55.034;73.150;2024-02-26T11:35:06;16.95;;;6.07;;
72761;SDS011;60886;55.034;73.150;2024-02-26T11:38:09;18.73;;;6.40;;
72761;SDS011;60886;55.034;73.150;2024-02-26T11:41:23;11.80;;;5.25;;
72761;SDS011;60886;55.034;73.150;2024-02-26T11:44:28;14.10;;;5.67;;
72761;SDS011;60886;55.034;73.150;2024-02-26T11:47:31;15.23;;;5.65;;
72761;SDS011;60886;55.034;73.150;2024-02-26T11:50:36;16.48;;;6.43;;
72761;SDS011;60886;55.034;73.150;2024-02-26T11:53:46;15.33;;;5.53;;
72761;SDS011;60886;55.034;73.150;2024-02-26T11:56:51;13.63;;;5.18;;
72761;SDS011;60886;55.034;73.150;2024-02-26T11:59:52;18.03;;;6.37;;
72761;SDS011;60886;55.034;73.150;2024-02-26T12:02:55;16.15;;;6.10;;
72761;SDS011;60886;55.034;73.150;2024-02-26T12:06:03;15.73;;;6.07;;
72761;SDS011;60886;55.034;73.150;2024-02-26T12:09:05;17.80;;;6.00;;
72761;SDS011;60886;55.034;73.150;2024-02-26T12:12:10;15.45;;;6.15;;
72761;SDS011;60886;55.034;73.150;2024-02-26T12:15:14;15.67;;;5.87;;
72761;SDS011;60886;55.034;73.150;2024-02-26T12:18:27;17.20;;;6.07;;
72761;SDS011;60886;55.034;73.150;2024-02-26T12:21:32;16.77;;;5.73;;
72761;SDS011;60886;55.034;73.150;2024-02-26T12:24:57;15.68;;;5.93;;
72761;SDS011;60886;55.034;73.150;2024-02-26T12:28:00;13.57;;;5.13;;
72761;SDS011;60886;55.034;73.150;2024-02-26T12:31:19;14.43;;;5.60;;
72761;SDS011;60886;55.034;73.150;2024-02-26T12:34:21;19.30;;;5.95;;
72761;SDS011;60886;55.034;73.150;2024-02-26T12:37:23;15.13;;;5.73;;
72761;SDS011;60886;55.034;73.150;2024-02-26T12:40:42;20.48;;;6.32;;
72761;SDS011;60886;55.034;73.150;2024-02-26T12:43:44;13.57;;;4.90;;
72761;SDS011;60886;55.034;73.150;2024-02-26T12:46:45;17.80;;;6.20;;
72761;SDS011;60886;55.034;73.150;2024-02-26T12:50:07;19.17;;;6.45;;
72761;SDS011;60886;55.034;73.150;2024-02-26T12:53:27;23.46;;;6.90;;
72761;SDS011;60886;55.034;73.150;2024-02-26T12:56:28;22.60;;;7.28;;
72761;SDS011;60886;55.034;73.150;2024-02-26T12:59:47;25.50;;;8.70;;
72761;SDS011;60886;55.034;73.150;2024-02-26T13:02:49;19.40;;;7.38;;
72761;SDS011;60886;55.034;73.150;2024-02-26T13:06:11;17.10;;;6.50;;
72761;SDS011;60886;55.034;73.150;2024-02-26T13:09:13;16.33;;;6.07;;
72761;SDS011;60886;55.034;73.150;2024-02-26T13:12:15;18.13;;;6.43;;
72761;SDS011;60886;55.034;73.150;2024-02-26T13:15:18;14.43;;;5.10;;
72761;SDS011;60886;55.034;73.150;2024-02-26T13:18:27;12.98;;;4.58;;
72761;SDS011;60886;55.034;73.150;2024-02-26T13:21:31;12.93;;;4.90;;
72761;SDS011;60886;55.034;73.150;2024-02-26T13:24:34;12.07;;;4.63;;
72761;SDS011;60886;55.034;73.150;2024-02-26T13:27:36;14.77;;;5.10;;
72761;SDS011;60886;55.034;73.150;2024-02-26T13:30:37;17.27;;;4.20;;
72761;SDS011;60886;55.034;73.150;2024-02-26T13:33:39;12.60;;;4.40;;
72761;SDS011;60886;55.034;73.150;2024-02-26T13:36:40;12.48;;;4.20;;
72761;SDS011;60886;55.034;73.150;2024-02-26T13:39:42;11.15;;;4.43;;
72761;SDS011;60886;55.034;73.150;2024-02-26T13:42:43;13.02;;;4.32;;
72761;SDS011;60886;55.034;73.150;2024-02-26T13:45:45;12.80;;;4.40;;
72761;SDS011;60886;55.034;73.150;2024-02-26T13:49:08;12.27;;;4.57;;
72761;SDS011;60886;55.034;73.150;2024-02-26T13:52:11;13.70;;;4.30;;
72761;SDS011;60886;55.034;73.150;2024-02-26T13:55:13;11.60;;;4.37;;
72761;SDS011;60886;55.034;73.150;2024-02-26T13:58:27;11.96;;;4.51;;
72761;SDS011;60886;55.034;73.150;2024-02-26T14:01:30;11.93;;;4.10;;
72761;SDS011;60886;55.034;73.150;2024-02-26T14:04:34;12.60;;;4.50;;
72761;SDS011;60886;55.034;73.150;2024-02-26T14:07:36;12.82;;;5.15;;
72761;SDS011;60886;55.034;73.150;2024-02-26T14:10:37;15.17;;;4.87;;
72761;SDS011;60886;55.034;73.150;2024-02-26T14:13:39;15.70;;;5.53;;
72761;SDS011;60886;55.034;73.150;2024-02-26T14:16:40;14.93;;;5.57;;
72761;SDS011;60886;55.034;73.150;2024-02-26T14:19:42;16.27;;;5.10;;
72761;SDS011;60886;55.034;73.150;2024-02-26T14:22:52;16.23;;;6.22;;
72761;SDS011;60886;55.034;73.150;2024-02-26T14:25:54;17.00;;;5.95;;
72761;SDS011;60886;55.034;73.150;2024-02-26T14:28:56;21.35;;;6.25;;
72761;SDS011;60886;55.034;73.150;2024-02-26T14:31:57;21.37;;;6.47;;
72761;SDS011;60886;55.034;73.150;2024-02-26T14:34:59;17.10;;;6.23;;
72761;SDS011;60886;55.034;73.150;2024-02-26T14:38:00;15.88;;;6.20;;
72761;SDS011;60886;55.034;73.150;2024-02-26T14:41:02;14.87;;;5.03;;
72761;SDS011;60886;55.034;73.150;2024-02-26T14:44:04;17.87;;;5.90;;
72761;SDS011;60886;55.034;73.150;2024-02-26T14:47:06;17.45;;;6.47;;
72761;SDS011;60886;55.034;73.150;2024-02-26T14:50:08;16.40;;;6.30;;
72761;SDS011;60886;55.034;73.150;2024-02-26T14:53:11;18.10;;;6.07;;
72761;SDS011;60886;55.034;73.150;2024-02-26T14:56:12;19.13;;;5.80;;
72761;SDS011;60886;55.034;73.150;2024-02-26T14:59:14;14.05;;;5.13;;
72761;SDS011;60886;55.034;73.150;2024-02-26T15:02:15;13.65;;;6.30;;
72761;SDS011;60886;55.034;73.150;2024-02-26T15:05:17;18.23;;;6.00;;
72761;SDS011;60886;55.034;73.150;2024-02-26T15:08:27;13.93;;;5.40;;
72761;SDS011;60886;55.034;73.150;2024-02-26T15:11:29;14.02;;;5.35;;
72761;SDS011;60886;55.034;73.150;2024-02-26T15:14:30;13.33;;;5.03;;
72761;SDS011;60886;55.034;73.150;2024-02-26T15:17:32;16.02;;;5.45;;
72761;SDS011;60886;55.034;73.150;2024-02-26T15:20:35;16.50;;;5.20;;
72761;SDS011;60886;55.034;73.150;2024-02-26T15:23:37;15.47;;;4.77;;
72761;SDS011;60886;55.034;73.150;2024-02-26T15:26:38;13.95;;;5.53;;
72761;SDS011;60886;55.034;73.150;2024-02-26T15:29:42;15.15;;;6.35;;
72761;SDS011;60886;55.034;73.150;2024-02-26T15:32:44;18.23;;;6.53;;
72761;SDS011;60886;55.034;73.150;2024-02-26T15:35:45;18.23;;;6.63;;
72761;SDS011;60886;55.034;73.150;2024-02-26T15:38:47;19.07;;;7.27;;
72761;SDS011;60886;55.034;73.150;2024-02-26T15:41:48;19.10;;;7.10;;
72761;SDS011;60886;55.034;73.150;2024-02-26T15:44:50;18.63;;;6.93;;
72761;SDS011;60886;55.034;73.150;2024-02-26T15:47:52;21.23;;;7.63;;
72761;SDS011;60886;55.034;73.150;2024-02-26T15:50:53;21.88;;;6.75;;
72761;SDS011;60886;55.034;73.150;2024-02-26T15:53:55;23.07;;;7.93;;
72761;SDS011;60886;55.034;73.150;2024-02-26T15:56:56;19.48;;;7.22;;
72761;SDS011;60886;55.034;73.150;2024-02-26T15:59:58;21.25;;;7.65;;
72761;SDS011;60886;55.034;73.150;2024-02-26T16:03:14;19.23;;;7.30;;
72761;SDS011;60886;55.034;73.150;2024-02-26T16:06:21;23.63;;;7.77;;
72761;SDS011;60886;55.034;73.150;2024-02-26T16:09:24;20.45;;;6.95;;
72761;SDS011;60886;55.034;73.150;2024-02-26T16:12:48;22.93;;;7.53;;
72761;SDS011;60886;55.034;73.150;2024-02-26T16:15:56;17.73;;;6.83;;
72761;SDS011;60886;55.034;73.150;2024-02-26T16:19:10;20.70;;;7.03;;
72761;SDS011;60886;55.034;73.150;2024-02-26T16:22:14;16.13;;;6.53;;
72761;SDS011;60886;55.034;73.150;2024-02-26T16:25:16;16.85;;;6.22;;
72761;SDS011;60886;55.034;73.150;2024-02-26T16:28:27;18.76;;;6.41;;
72761;SDS011;60886;55.034;73.150;2024-02-26T16:31:28;16.00;;;6.93;;
72761;SDS011;60886;55.034;73.150;2024-02-26T16:34:30;17.77;;;7.30;;
72761;SDS011;60886;55.034;73.150;2024-02-26T16:37:32;17.53;;;6.83;;
72761;SDS011;60886;55.034;73.150;2024-02-26T16:40:36;20.25;;;7.22;;
72761;SDS011;60886;55.034;73.150;2024-02-26T16:43:37;18.42;;;6.57;;
72761;SDS011;60886;55.034;73.150;2024-02-26T16:46:39;22.23;;;8.40;;
72761;SDS011;60886;55.034;73.150;2024-02-26T16:49:40;26.70;;;9.75;;
72761;SDS011;60886;55.034;73.150;2024-02-26T16:52:42;24.65;;;8.48;;
72761;SDS011;60886;55.034;73.150;2024-02-26T16:55:43;22.83;;;9.23;;
72761;SDS011;60886;55.034;73.150;2024-02-26T16:58:45;24.60;;;8.70;;
72761;SDS011;60886;55.034;73.150;2024-02-26T17:01:46;24.15;;;9.25;;
72761;SDS011;60886;55.034;73.150;2024-02-26T17:04:49;22.87;;;8.43;;
72761;SDS011;60886;55.034;73.150;2024-02-26T17:07:50;25.58;;;9.48;;
72761;SDS011;60886;55.034;73.150;2024-02-26T17:10:52;25.05;;;8.75;;
72761;SDS011;60886;55.034;73.150;2024-02-26T17:13:54;24.67;;;8.90;;
72761;SDS011;60886;55.034;73.150;2024-02-26T17:16:55;23.50;;;8.48;;
72761;SDS011;60886;55.034;73.150;2024-02-26T17:19:57;24.83;;;9.10;;
72761;SDS011;60886;55.034;73.150;2024-02-26T17:22:58;33.63;;;11.93;;
72761;SDS011;60886;55.034;73.150;2024-02-26T17:26:00;28.33;;;11.32;;
72761;SDS011;60886;55.034;73.150;2024-02-26T17:29:02;31.63;;;11.95;;
72761;SDS011;60886;55.034;73.150;2024-02-26T17:32:04;33.00;;;12.52;;
72761;SDS011;60886;55.034;73.150;2024-02-26T17:35:05;32.30;;;11.07;;
72761;SDS011;60886;55.034;73.150;2024-02-26T17:38:07;26.98;;;10.18;;
72761;SDS011;60886;55.034;73.150;2024-02-26T17:41:09;25.57;;;10.13;;
72761;SDS011;60886;55.034;73.150;2024-02-26T17:44:11;25.30;;;9.50;;
72761;SDS011;60886;55.034;73.150;2024-02-26T17:47:12;22.95;;;9.52;;
72761;SDS011;60886;55.034;73.150;2024-02-26T17:50:14;24.63;;;9.00;;